Saturday, August 18, 2018, 3:17 AM EDT
Back to Local

KPYM, Plymouth Municipal Airport

Location: Carver, MA, United States Lat: 41.9
Local Time: 3:17 AM EDT ( 7:17 GMT) Lon: -70.733
Time Zone: US/Eastern Elev: 147 ft

Show me the last for .
Show Decoded

2018-08-18 02:52 METAR KPYM 180652Z AUTO 21008KT 10SM FEW014 26/23 A2987 RMK AO2 SLP114 T02560233
                 =
2018-08-18 02:25 METAR KPYM 180625Z AUTO 21009KT 10SM SCT016 SCT021 26/23 A2989 RMK AO2 T02560233
                 =
2018-08-18 01:52 METAR KPYM 180552Z AUTO 21009KT 10SM BKN017 26/23 A2990 RMK AO2 SLP122 T02560233
                 10267 20256 56016 =
2018-08-18 01:48 METAR KPYM 180548Z AUTO 21008G15KT 10SM BKN019 26/23 A2990 RMK AO2 =
2018-08-18 00:52 METAR KPYM 180452Z AUTO 21008KT 10SM SCT100 26/23 A2992 RMK AO2 SLP131 T02560228
                 403110194 =
2018-08-17 23:52 METAR KPYM 180352Z AUTO 21007KT 10SM FEW013 26/23 A2995 RMK AO2 SLP139 T02560233
                 =
2018-08-17 23:22 METAR KPYM 180322Z AUTO 21008KT 10SM SCT012 26/23 A2995 RMK AO2 T02560233 =
2018-08-17 22:52 METAR KPYM 180252Z AUTO 20008KT 10SM BKN013 26/23 A2995 RMK AO2 SLP140 T02560233
                 58007 =
2018-08-17 22:42 METAR KPYM 180242Z AUTO 21008KT 10SM BKN013 26/23 A2995 RMK AO2 T02560233 =
2018-08-17 21:52 METAR KPYM 180152Z AUTO 21010G16KT 10SM FEW013 26/23 A2997 RMK AO2 SLP146
                 T02560228 =
2018-08-17 20:52 METAR KPYM 180052Z AUTO 21009KT 10SM CLR 26/22 A2998 RMK AO2 SLP151 T02610217 =
2018-08-17 19:52 METAR KPYM 172352Z AUTO 21009KT 10SM CLR 27/21 A2997 RMK AO2 SLP147 T02670211
                 10311 20267 58004 =
2018-08-17 18:52 METAR KPYM 172252Z AUTO 20007KT 10SM CLR 28/22 A2997 RMK AO2 SLP148 T02780217 =
2018-08-17 17:52 METAR KPYM 172152Z AUTO 19007KT 10SM CLR 29/22 A2998 RMK AO2 SLP151 T02940217 =
2018-08-17 16:52 METAR KPYM 172052Z AUTO 22012KT 10SM CLR 31/21 A2998 RMK AO2 LTG DSNT NW SLP151
                 T03060211 56019 =
2018-08-17 15:52 METAR KPYM 171952Z AUTO VRB04KT 7SM CLR 29/23 A3000 RMK AO2 SLP157 T02890233 =
2018-08-17 14:52 METAR KPYM 171852Z AUTO 14007KT 9SM FEW030 BKN075 30/23 A3001 RMK AO2 SLP162
                 T03000228 =
2018-08-17 13:52 METAR KPYM 171752Z AUTO 15005KT 10SM CLR 31/22 A3004 RMK AO2 SLP170 T03060217
                 10311 20233 56017 =
2018-08-17 12:52 METAR KPYM 171652Z AUTO 23007KT 10SM CLR 31/21 A3005 RMK AO2 SLP176 T03060206 =
2018-08-17 11:52 METAR KPYM 171552Z AUTO VRB03KT 10SM CLR 30/19 A3007 RMK AO2 SLP181 T03000194 =
2018-08-17 10:52 METAR KPYM 171452Z AUTO VRB03KT 10SM CLR 29/18 A3009 RMK AO2 SLP187 T02890178
                 56001 =
2018-08-17 09:52 METAR KPYM 171352Z AUTO 11004KT 10SM CLR 27/18 A3009 RMK AO2 SLP187 T02720178 =
2018-08-17 08:52 METAR KPYM 171252Z AUTO VRB03KT 10SM CLR 26/19 A3009 RMK AO2 SLP188 T02560194 =
2018-08-17 07:52 METAR KPYM 171152Z AUTO 05004KT 10SM CLR 23/21 A3009 RMK AO2 SLP189 T02330206
                 10233 20194 50004 =
2018-08-17 06:52 METAR KPYM 171052Z AUTO 00000KT 10SM CLR 21/19 A3009 RMK AO2 SLP189 T02110194 =
2018-08-17 05:52 METAR KPYM 170952Z AUTO 00000KT 10SM CLR 19/18 A3009 RMK AO2 SLP187 T01940178 =
2018-08-17 04:52 METAR KPYM 170852Z AUTO 00000KT 10SM CLR 19/18 A3008 RMK AO2 SLP184 T01940178
                 56001 =
2018-08-17 03:52 METAR KPYM 170752Z AUTO 00000KT 7SM CLR 20/19 A3008 RMK AO2 SLP184 T02000189 =

Support USWX by starting your Amazon purchase here.